Nrp Polar — CTEJ — position and weather

sailwx.info

Track history (hours):
 
Tides and Currents Weather Stations Pressure Air Temp Water Temp Dewpoint Dewpoint Depression Visibility Wind Speed Wind Dir Waves Ship Positions

Nrp Polar

Last reported at 2017-Jan-08 14:33 UTC. Time now 2017-Jan-16 10:57 UTC.
Position N 38°40' W 009°09'.

Length 17 m; draft 4 m.

Type: Sailing vessel. MMSI: 263142000.

Date/timePositionNaut miles runAvg speedWind from/ knotsBaromVisibWave heightAir tempDewpointWater temp
2017-Jan-08 14:33N 38°40' W 009°09'3 2.9
2017-Jan-08 13:33N 38°41' W 009°13'6 6.2
2017-Jan-08 12:33N 38°39' W 009°20'8 8.1
2017-Jan-08 11:33N 38°31' W 009°17'8 7.8
2017-Jan-08 10:33N 38°24' W 009°13'9 8.5
2017-Jan-08 09:33N 38°26' W 009°03'7 6.8
2017-Jan-08 08:33N 38°30' W 008°56'1 0.1
2017-Jan-07 16:30N 38°30' W 008°54'5 5.2
2017-Jan-07 15:34N 38°27' W 008°59'6 5.7
2017-Jan-07 14:33N 38°26' W 009°07'0 0.0
2017-Jan-07 13:33N 38°26' W 009°07'1 0.9
2017-Jan-07 12:33N 38°25' W 009°06'6 6.2
2017-Jan-07 11:33N 38°23' W 009°14'7 7.0
2017-Jan-07 10:33N 38°29' W 009°20'7 6.9
2017-Jan-07 09:33N 38°35' W 009°23'6 6.3
2017-Jan-07 08:33N 38°41' W 009°24'1 0.6
2017-Jan-07 07:33N 38°42' W 009°25'0 0.0
2017-Jan-06 17:33N 38°42' W 009°25'1 1.3
2017-Jan-06 16:33N 38°41' W 009°24'5 4.8
2017-Jan-06 15:33N 38°41' W 009°18'7 7.2
2017-Jan-06 14:34N 38°42' W 009°09'1 1.4
2017-Jan-06 13:33N 38°40' W 009°09'0 0.0
2017-Jan-06 12:33N 38°40' W 009°09'0 0.0
2017-Jan-05 15:33N 38°40' W 009°09'0 0.0
2017-Jan-05 14:30N 38°40' W 009°09'0 0.0
2017-Jan-05 11:27N 38°40' W 009°09'0 0.0
2017-Jan-05 10:33N 38°40' W 009°09'  
Track history (hours):
 
Tides and Currents Weather Stations Pressure Air Temp Water Temp Dewpoint Dewpoint Depression Visibility Wind Speed Wind Dir Waves Ship Positions

Nrp Polar

Last reported at 2017-Jan-08 14:33 UTC. Time now 2017-Jan-16 10:57 UTC.
Position N 38°40' W 009°09'.

Length 17 m; draft 4 m.

Type: Sailing vessel. MMSI: 263142000.

Date/timePositionNaut miles runAvg speedWind from/ knotsBaromVisibWave heightAir tempDewpointWater temp
2017-Jan-08 14:33N 38°40' W 009°09'3 2.9
2017-Jan-08 13:33N 38°41' W 009°13'6 6.2
2017-Jan-08 12:33N 38°39' W 009°20'8 8.1
2017-Jan-08 11:33N 38°31' W 009°17'8 7.8
2017-Jan-08 10:33N 38°24' W 009°13'9 8.5
2017-Jan-08 09:33N 38°26' W 009°03'7 6.8
2017-Jan-08 08:33N 38°30' W 008°56'1 0.1
2017-Jan-07 16:30N 38°30' W 008°54'5 5.2
2017-Jan-07 15:34N 38°27' W 008°59'6 5.7
2017-Jan-07 14:33N 38°26' W 009°07'0 0.0
2017-Jan-07 13:33N 38°26' W 009°07'1 0.9
2017-Jan-07 12:33N 38°25' W 009°06'6 6.2
2017-Jan-07 11:33N 38°23' W 009°14'7 7.0
2017-Jan-07 10:33N 38°29' W 009°20'7 6.9
2017-Jan-07 09:33N 38°35' W 009°23'6 6.3
2017-Jan-07 08:33N 38°41' W 009°24'1 0.6
2017-Jan-07 07:33N 38°42' W 009°25'0 0.0
2017-Jan-06 17:33N 38°42' W 009°25'1 1.3
2017-Jan-06 16:33N 38°41' W 009°24'5 4.8
2017-Jan-06 15:33N 38°41' W 009°18'7 7.2
2017-Jan-06 14:34N 38°42' W 009°09'1 1.4
2017-Jan-06 13:33N 38°40' W 009°09'0 0.0
2017-Jan-06 12:33N 38°40' W 009°09'0 0.0
2017-Jan-05 15:33N 38°40' W 009°09'0 0.0
2017-Jan-05 14:30N 38°40' W 009°09'0 0.0
2017-Jan-05 11:27N 38°40' W 009°09'0 0.0
2017-Jan-05 10:33N 38°40' W 009°09'  

Dump ship's entire track history